Terminal Aerodrome Forecast
Issued by NWS

Home | Current Version | Previous Version | Text Only | Print | Product List | Glossary On
Versions: 1 2 3 4 5 6 7 8 9 10 11 12 13 14 15 16 17 18 19 20 21 22 23 24 25 26 27 28
000
FTUS44 KLZK 212333
TAFADF
TAF
KADF 212333Z 2200/2224 12008KT P6SM -RA SCT040 BKN100 OVC250
      TEMPO 2200/2204 4SM -TSRA BR OVC040CB
     FM220400 12009KT 6SM -RA VCTS SCT020 OVC050CB
      TEMPO 2204/2208 4SM RA BR OVC025
     FM220800 12008KT 5SM -SHRA BR VCTS BKN015 OVC035CB
     FM221000 10008KT 5SM RA BR VCTS OVC020CB
     FM221500 36007KT 6SM -RA BR BKN020 OVC035=

USA.gov is the U.S. government's official web portal to all federal, state and local government web resources and services.